Grand Rapids, MI (49501)

9:54 PM EDT on August 23, 2016 (GMT -0400)
WXGR.NET | | Change Station

Elev 756 ft 42.96 °N, 85.63 °W | Updated 5 seconds ago

Scattered Clouds
Scattered Clouds
71.6 °F
Feels Like 75 °F
N
0.0
Wind Variable Wind from South
Gusts 0.0 mph

Today
High -- | Low -- °F
--% Chance of Precip.
Yesterday
High -- | Low -- °F
Precip. -- in
Pressure 30.17 in
Visibility 10.0 miles
Clouds Few 12000 ft
Scattered Clouds 25000 ft
Heat Index 75 °F
Dew Point 59 °F
Humidity 65%
Rainfall 0.00 in
Snow Depth Not available.
6:57 AM 8:31 PM
Waning Gibbous, 62% visible
METAR KGRR 240053Z 19005KT 10SM FEW120 SCT250 22/15 A3018 RMK AO2 SLP215 T02220150
Pressure 30.17 in
Visibility 10.0 miles
Clouds Few 12000 ft
Scattered Clouds 25000 ft
Heat Index 75 °F
Dew Point 59 °F
Humidity 65%
Rainfall 0.00 in
Snow Depth Not available.
6:57 AM 8:31 PM
Waning Gibbous, 62% visible
METAR KGRR 240053Z 19005KT 10SM FEW120 SCT250 22/15 A3018 RMK AO2 SLP215 T02220150

10-Day Weather Forecast

Almanac

Astronomy

Aug. 23, 2016 Rise Set
Actual Time
Civil Twilight
Nautical Twilight
Astronomical Twilight
Moon
Length of Visible Light
Length of Day
Tomorrow will be .
, % of the Moon is Illuminated

Today's Extremes

State Highs State Lows

Community

WunderPhotos

Upload Photos

1,934,520 photos uploaded!

WunderBlog® & News

Nearby

Air Quality

  Air Quality AQ Index Pollutant
Not available.

Snow Depth

Station Depth Elevation

Earthquake Activity

City Distance Mag. Time & Date
Minimum magnitude displayed is 2.5.

Coastal Water Temperatures

Place Temperature

Stations

Nearby Weather Stations

Station Location Temp. Windchill Dew Point Humidity Wind Precip. Elev Updated Type
                   

Watches & Warnings

There are currently no watches in effect.